createdAt,value
2019-06-27T00:00:14.052Z,99.90
2019-06-27T00:02:41.704Z,99.90
2019-06-27T00:05:09.430Z,99.90
2019-06-27T00:07:37.069Z,99.90
2019-06-27T00:10:06.577Z,99.90
2019-06-27T00:12:34.286Z,99.90
2019-06-27T00:15:01.951Z,99.90
2019-06-27T00:17:29.597Z,99.90
2019-06-27T00:19:57.248Z,99.90
2019-06-27T00:22:24.888Z,99.90
2019-06-27T00:24:52.564Z,99.90
2019-06-27T00:27:20.196Z,99.90
2019-06-27T00:29:47.860Z,99.90
2019-06-27T00:32:15.501Z,99.90
2019-06-27T00:34:43.156Z,99.90
2019-06-27T00:37:10.805Z,99.90
2019-06-27T00:39:38.461Z,99.90
2019-06-27T00:42:06.111Z,99.90
2019-06-27T00:44:33.769Z,99.90
2019-06-27T00:47:01.412Z,99.90
2019-06-27T00:49:29.065Z,99.90
2019-06-27T00:51:56.718Z,99.90
2019-06-27T00:54:24.402Z,99.90
2019-06-27T00:56:52.092Z,99.90
2019-06-27T00:59:19.756Z,99.90
2019-06-27T01:01:47.413Z,99.90
2019-06-27T01:04:15.060Z,99.90
2019-06-27T01:06:42.704Z,99.90
2019-06-27T01:09:10.363Z,99.90
2019-06-27T01:11:38.000Z,99.90
2019-06-27T01:14:05.652Z,99.90
2019-06-27T01:16:33.371Z,99.90
2019-06-27T01:19:01.032Z,99.90
2019-06-27T01:21:28.672Z,99.90
2019-06-27T01:23:56.333Z,99.90
2019-06-27T01:26:23.994Z,99.90
2019-06-27T01:28:51.652Z,99.90
2019-06-27T01:31:19.315Z,99.90
2019-06-27T01:33:47.944Z,99.90
2019-06-27T01:36:15.604Z,99.90
2019-06-27T01:38:43.253Z,99.90
2019-06-27T01:41:10.905Z,99.90
2019-06-27T01:43:38.552Z,99.90
2019-06-27T01:46:06.277Z,99.90
2019-06-27T01:48:33.928Z,99.90
2019-06-27T01:51:01.601Z,99.90
2019-06-27T01:53:29.243Z,99.90
2019-06-27T01:55:56.925Z,99.90
2019-06-27T01:58:24.618Z,99.90
2019-06-27T02:00:52.270Z,99.90
2019-06-27T02:03:19.908Z,99.90
2019-06-27T02:05:47.576Z,99.90
2019-06-27T02:08:15.222Z,99.90
2019-06-27T02:10:42.876Z,99.90
2019-06-27T02:13:10.521Z,99.90
2019-06-27T02:15:38.182Z,99.90
2019-06-27T02:18:05.889Z,99.90
2019-06-27T02:20:33.612Z,99.90
2019-06-27T02:23:01.252Z,99.90
2019-06-27T02:25:28.980Z,99.90
2019-06-27T02:28:03.933Z,99.90
2019-06-27T02:30:42.450Z,99.90
2019-06-27T02:33:10.154Z,99.90
2019-06-27T02:35:37.812Z,99.90
2019-06-27T02:38:05.508Z,99.90
2019-06-27T02:40:33.165Z,99.90
2019-06-27T02:43:01.787Z,99.90
2019-06-27T02:45:29.504Z,99.90
2019-06-27T02:47:57.140Z,99.90
2019-06-27T02:55:19.566Z,99.90
2019-06-27T02:57:47.212Z,99.90
2019-06-27T03:00:15.033Z,99.90
2019-06-27T03:02:42.693Z,99.90
2019-06-27T03:05:10.426Z,99.90
2019-06-27T03:07:38.236Z,99.90
2019-06-27T03:10:06.233Z,99.90
2019-06-27T03:12:33.949Z,99.90
2019-06-27T03:15:01.715Z,99.90
2019-06-27T03:17:29.406Z,99.90
2019-06-27T03:19:57.057Z,99.90
2019-06-27T03:22:24.711Z,99.90
2019-06-27T03:24:52.357Z,99.90
2019-06-27T03:27:19.999Z,99.90
2019-06-27T03:29:47.664Z,99.90
2019-06-27T03:32:15.322Z,99.90
2019-06-27T03:34:43.050Z,99.90
2019-06-27T03:37:10.764Z,99.90
2019-06-27T03:39:38.411Z,99.90
2019-06-27T03:42:06.056Z,99.90
2019-06-27T03:44:33.877Z,99.90
2019-06-27T03:47:01.541Z,99.90
2019-06-27T03:49:29.201Z,99.90
2019-06-27T03:51:56.913Z,99.90
2019-06-27T03:54:24.624Z,99.90
2019-06-27T03:56:52.292Z,99.90
2019-06-27T03:59:19.943Z,99.90
2019-06-27T04:01:47.628Z,99.90
2019-06-27T04:04:15.264Z,99.90
2019-06-27T04:06:42.921Z,99.90
2019-06-27T04:09:10.561Z,99.90
2019-06-27T04:11:38.212Z,99.90
2019-06-27T04:14:05.853Z,99.90
2019-06-27T04:16:33.510Z,99.90
2019-06-27T04:19:01.174Z,99.90
2019-06-27T04:21:28.890Z,99.90
2019-06-27T04:23:56.609Z,99.90
2019-06-27T04:26:24.277Z,99.90
2019-06-27T04:28:51.936Z,99.90
2019-06-27T04:31:19.657Z,99.90
2019-06-27T04:33:47.307Z,99.90
2019-06-27T04:36:14.960Z,99.90
2019-06-27T04:38:42.641Z,99.90
2019-06-27T04:41:10.301Z,99.90
2019-06-27T04:43:38.009Z,99.90
2019-06-27T04:46:05.660Z,99.90
2019-06-27T04:48:33.310Z,99.90
2019-06-27T04:51:00.975Z,99.90
2019-06-27T04:53:28.617Z,99.90
2019-06-27T04:55:56.298Z,99.90
2019-06-27T04:58:23.961Z,99.90
2019-06-27T05:00:51.679Z,99.90
2019-06-27T05:03:19.382Z,99.90
2019-06-27T05:05:47.162Z,99.90
2019-06-27T05:08:15.068Z,99.90
2019-06-27T05:10:42.816Z,99.90
2019-06-27T05:13:10.461Z,99.90
2019-06-27T05:15:38.106Z,99.90
2019-06-27T05:18:05.767Z,99.90
2019-06-27T05:20:33.417Z,99.90
2019-06-27T05:23:01.145Z,99.90
2019-06-27T05:27:57.549Z,99.90
2019-06-27T05:30:25.187Z,99.90
2019-06-27T05:32:52.840Z,99.90
2019-06-27T05:37:47.870Z,99.90
2019-06-27T05:40:15.576Z,99.90
2019-06-27T05:42:43.250Z,99.90
2019-06-27T05:45:10.970Z,99.90
2019-06-27T05:47:38.618Z,99.90
2019-06-27T05:55:00.998Z,99.90
2019-06-27T05:57:28.647Z,99.90
2019-06-27T05:59:56.295Z,99.90
2019-06-27T06:02:23.950Z,99.90
2019-06-27T06:04:51.601Z,99.90
2019-06-27T06:09:46.618Z,99.90
2019-06-27T06:12:14.268Z,99.90
2019-06-27T06:14:41.899Z,99.90
2019-06-27T06:17:09.556Z,99.90
2019-06-27T06:19:37.201Z,99.90
2019-06-27T06:22:04.857Z,99.90
2019-06-27T06:24:32.489Z,99.90
2019-06-27T06:27:00.140Z,99.90
2019-06-27T06:29:27.786Z,99.90
2019-06-27T06:31:55.462Z,99.90
2019-06-27T06:34:23.165Z,99.90
2019-06-27T06:36:50.810Z,99.90
2019-06-27T06:39:18.442Z,99.90
2019-06-27T06:41:46.118Z,99.90
2019-06-27T06:44:13.822Z,99.90
2019-06-27T06:46:41.470Z,99.90
2019-06-27T06:49:09.137Z,99.90
2019-06-27T06:51:36.773Z,99.90
2019-06-27T06:54:04.415Z,99.90
2019-06-27T06:56:32.059Z,99.90
2019-06-27T06:58:59.728Z,99.90
2019-06-27T07:01:27.374Z,99.90
2019-06-27T07:03:55.028Z,99.90
2019-06-27T07:06:22.674Z,99.90
2019-06-27T07:08:50.321Z,99.90
2019-06-27T07:11:17.956Z,99.90
2019-06-27T07:13:45.607Z,99.90
2019-06-27T07:16:13.290Z,99.90
2019-06-27T07:18:40.940Z,99.90
2019-06-27T07:21:08.595Z,99.90
2019-06-27T07:23:36.243Z,99.90
2019-06-27T07:26:03.884Z,99.90
2019-06-27T07:28:31.540Z,99.90
2019-06-27T07:30:59.175Z,99.90
2019-06-27T07:33:26.825Z,99.90
2019-06-27T07:38:21.845Z,99.90
2019-06-27T07:40:49.490Z,99.90
2019-06-27T07:43:17.150Z,99.90
2019-06-27T07:45:44.791Z,99.90
2019-06-27T07:48:12.452Z,99.90
2019-06-27T07:50:40.091Z,99.90
2019-06-27T07:53:07.743Z,99.90
2019-06-27T07:55:35.375Z,99.90
2019-06-27T07:58:03.010Z,99.90
2019-06-27T08:00:30.658Z,99.90
2019-06-27T08:02:58.316Z,99.90
2019-06-27T08:05:26.032Z,99.90
2019-06-27T08:07:53.695Z,99.90
2019-06-27T08:10:21.413Z,99.90
2019-06-27T08:12:49.083Z,99.90
2019-06-27T08:15:16.732Z,99.90
2019-06-27T08:17:44.388Z,99.90
2019-06-27T08:20:12.099Z,99.90
2019-06-27T08:22:39.767Z,99.90
2019-06-27T08:25:07.480Z,99.90
2019-06-27T08:27:35.185Z,99.90
2019-06-27T08:30:08.046Z,99.90
2019-06-27T08:32:33.567Z,99.90
2019-06-27T08:35:01.313Z,99.90
2019-06-27T08:37:28.982Z,99.90
2019-06-27T08:39:56.687Z,99.90
2019-06-27T08:42:24.355Z,99.90
2019-06-27T08:47:19.402Z,99.90
2019-06-27T08:49:47.075Z,99.90
2019-06-27T08:52:14.737Z,99.90
2019-06-27T08:54:42.400Z,99.90
2019-06-27T08:57:10.024Z,99.90
2019-06-27T08:59:37.703Z,99.90
2019-06-27T09:02:09.069Z,99.90
2019-06-27T09:04:34.713Z,99.90
2019-06-27T09:07:02.359Z,99.90
2019-06-27T09:09:30.069Z,99.90
2019-06-27T09:11:57.733Z,99.90
2019-06-27T09:14:25.387Z,99.90
2019-06-27T09:16:53.043Z,99.90
2019-06-27T09:19:20.715Z,99.90
2019-06-27T09:21:48.428Z,99.90
2019-06-27T09:24:16.092Z,99.90
2019-06-27T09:26:43.747Z,99.90
2019-06-27T09:29:11.400Z,99.90
2019-06-27T09:31:39.069Z,99.90
2019-06-27T09:34:06.728Z,99.90
2019-06-27T09:36:34.375Z,99.90
2019-06-27T09:39:02.023Z,99.90
2019-06-27T09:41:29.674Z,99.90
2019-06-27T09:43:57.326Z,99.90
2019-06-27T09:46:24.993Z,99.90
2019-06-27T09:48:52.678Z,99.90
2019-06-27T09:51:20.329Z,99.90
2019-06-27T09:53:48.032Z,99.90
2019-06-27T09:56:15.783Z,99.90
2019-06-27T09:58:43.436Z,99.90
2019-06-27T10:01:11.120Z,99.90
2019-06-27T10:03:38.843Z,99.90
2019-06-27T10:08:33.936Z,99.90
2019-06-27T10:11:01.609Z,99.90
2019-06-27T10:13:29.288Z,99.90
2019-06-27T10:15:56.937Z,99.90
2019-06-27T10:18:24.585Z,99.90
2019-06-27T10:20:52.261Z,99.90
2019-06-27T10:23:19.894Z,99.90
2019-06-27T10:25:47.942Z,99.90
2019-06-27T10:28:15.598Z,99.90
2019-06-27T10:30:43.327Z,99.90
2019-06-27T10:33:10.981Z,99.90
2019-06-27T10:35:38.671Z,99.90
2019-06-27T10:38:06.335Z,99.90
2019-06-27T10:40:34.076Z,99.90
2019-06-27T10:45:30.053Z,99.90
2019-06-27T10:47:57.703Z,99.90
2019-06-27T10:50:25.368Z,99.10
2019-06-27T10:52:53.097Z,97.20
2019-06-27T10:55:20.819Z,96.40
2019-06-27T10:57:48.479Z,98.10
2019-06-27T11:00:17.226Z,96.90
2019-06-27T11:02:44.864Z,93.90
2019-06-27T11:05:12.614Z,95.90
2019-06-27T11:10:09.106Z,87.50
2019-06-27T11:12:36.761Z,94.50
2019-06-27T11:15:08.648Z,93.40
2019-06-27T11:17:36.361Z,93.60
2019-06-27T11:20:04.650Z,99.20
2019-06-27T11:22:32.291Z,91.70
2019-06-27T11:24:59.956Z,99.90
2019-06-27T11:27:27.737Z,89.20
2019-06-27T11:29:55.385Z,84.10
2019-06-27T11:32:23.028Z,87.00
2019-06-27T11:34:50.675Z,78.90
2019-06-27T11:37:18.425Z,86.00
2019-06-27T11:42:13.549Z,77.40
2019-06-27T11:44:41.263Z,86.10
2019-06-27T11:49:36.383Z,78.20
2019-06-27T11:52:04.115Z,78.70
2019-06-27T11:54:31.777Z,75.10
2019-06-27T11:56:59.427Z,75.60
2019-06-27T11:59:27.083Z,72.20
2019-06-27T12:04:22.159Z,73.30
2019-06-27T12:06:49.944Z,64.60
2019-06-27T12:09:17.575Z,67.10
2019-06-27T12:11:45.219Z,63.60
2019-06-27T12:16:40.298Z,91.20
2019-06-27T12:19:07.934Z,54.60
2019-06-27T12:21:35.579Z,55.30
2019-06-27T12:26:30.620Z,54.50
2019-06-27T12:28:58.391Z,51.00
2019-06-27T12:31:26.111Z,49.60
2019-06-27T12:34:06.177Z,48.00
2019-06-27T12:36:23.157Z,46.20
2019-06-27T12:38:50.816Z,46.00
2019-06-27T12:41:18.513Z,47.30
2019-06-27T12:43:46.156Z,49.70
2019-06-27T12:46:13.836Z,48.10
2019-06-27T12:48:41.480Z,47.70
2019-06-27T12:51:09.152Z,49.30
2019-06-27T12:53:36.868Z,49.90
2019-06-27T12:56:04.523Z,47.10
2019-06-27T12:58:32.171Z,49.80
2019-06-27T13:00:59.835Z,47.10
2019-06-27T13:03:29.414Z,50.00
2019-06-27T13:05:57.071Z,46.60
2019-06-27T13:08:24.728Z,45.70
2019-06-27T13:10:52.388Z,43.00
2019-06-27T13:13:20.052Z,44.00
2019-06-27T13:15:47.696Z,42.30
2019-06-27T13:18:15.354Z,42.30
2019-06-27T13:20:57.382Z,42.60
2019-06-27T13:23:13.460Z,40.90
2019-06-27T13:25:41.112Z,40.00
2019-06-27T13:28:08.754Z,38.70
2019-06-27T13:30:36.418Z,40.20
2019-06-27T13:33:04.066Z,38.90
2019-06-27T13:35:31.749Z,37.50
2019-06-27T13:37:59.416Z,37.70
2019-06-27T13:40:27.081Z,39.50
2019-06-27T13:42:55.765Z,38.70
2019-06-27T13:45:26.464Z,39.70
2019-06-27T13:47:52.978Z,36.50
2019-06-27T13:50:20.627Z,40.00
2019-06-27T13:52:49.175Z,39.60
2019-06-27T13:55:16.865Z,38.20
2019-06-27T13:57:44.494Z,39.50
2019-06-27T14:00:12.310Z,39.10
2019-06-27T14:02:39.963Z,37.50
2019-06-27T14:05:07.982Z,37.80
2019-06-27T14:07:35.709Z,39.20
2019-06-27T14:10:04.724Z,39.00
2019-06-27T14:12:32.370Z,37.60
2019-06-27T14:15:00.600Z,38.70
2019-06-27T14:17:28.365Z,39.50
2019-06-27T14:19:56.009Z,36.90
2019-06-27T14:22:33.641Z,36.60
2019-06-27T14:24:53.031Z,32.90
2019-06-27T14:27:20.701Z,34.40
2019-06-27T14:29:48.339Z,35.20
2019-06-27T14:32:16.024Z,34.90
2019-06-27T14:34:43.671Z,33.50
2019-06-27T14:37:11.394Z,33.70
2019-06-27T14:39:39.099Z,32.20
2019-06-27T14:42:07.653Z,33.40
2019-06-27T14:44:35.358Z,35.00
2019-06-27T14:47:03.058Z,31.90
2019-06-27T14:49:30.715Z,32.90
2019-06-27T14:51:58.383Z,32.60
2019-06-27T14:54:26.122Z,33.30
2019-06-27T14:56:56.765Z,33.40
2019-06-27T14:59:24.414Z,33.00
2019-06-27T15:06:46.943Z,34.10
2019-06-27T15:09:14.590Z,32.50
2019-06-27T15:14:09.678Z,33.80
2019-06-27T15:16:37.325Z,35.90
2019-06-27T15:19:04.975Z,34.50
2019-06-27T15:21:32.635Z,33.30
2019-06-27T15:24:00.297Z,31.10
2019-06-27T15:26:27.955Z,32.00
2019-06-27T15:28:55.608Z,31.90
2019-06-27T15:31:23.258Z,32.00
2019-06-27T15:33:50.957Z,32.60
2019-06-27T15:38:45.986Z,32.00
2019-06-27T15:41:13.625Z,33.80
2019-06-27T15:46:08.715Z,33.00
2019-06-27T15:48:36.376Z,32.40
2019-06-27T15:51:04.042Z,34.70
2019-06-27T15:53:31.780Z,33.30
2019-06-27T15:55:59.412Z,32.40
2019-06-27T15:58:27.090Z,32.00
2019-06-27T16:00:54.894Z,31.50
2019-06-27T16:03:22.588Z,31.40
2019-06-27T16:05:50.239Z,30.10
2019-06-27T16:08:17.876Z,30.50
2019-06-27T16:10:45.670Z,31.30
2019-06-27T16:15:40.877Z,33.20
2019-06-27T16:18:08.697Z,33.10
2019-06-27T16:20:36.350Z,32.50
2019-06-27T16:23:04.012Z,31.70
2019-06-27T16:25:31.666Z,32.30
2019-06-27T16:27:59.324Z,32.40
2019-06-27T16:30:28.623Z,32.20
2019-06-27T16:32:56.344Z,30.80
2019-06-27T16:35:23.983Z,32.70
2019-06-27T16:37:51.648Z,32.60
2019-06-27T16:40:19.306Z,32.70
2019-06-27T16:42:47.907Z,32.10
2019-06-27T16:45:15.713Z,32.70
2019-06-27T16:47:43.391Z,33.40
2019-06-27T16:50:11.198Z,33.40
2019-06-27T16:57:33.596Z,32.70
2019-06-27T17:00:01.248Z,33.00
2019-06-27T17:02:28.903Z,41.60
2019-06-27T17:04:56.548Z,33.00
2019-06-27T17:07:24.199Z,33.70
2019-06-27T17:09:51.848Z,33.70
2019-06-27T17:12:19.496Z,33.40
2019-06-27T17:14:47.224Z,32.40
2019-06-27T17:17:14.859Z,32.90
2019-06-27T17:22:09.895Z,32.70
2019-06-27T17:24:37.552Z,34.70
2019-06-27T17:27:05.232Z,35.50
2019-06-27T17:29:32.874Z,36.90
2019-06-27T17:32:00.510Z,37.50
2019-06-27T17:34:28.192Z,38.30
2019-06-27T17:39:25.763Z,39.50
2019-06-27T17:41:53.449Z,40.50
2019-06-27T17:44:21.104Z,41.70
2019-06-27T17:46:48.752Z,43.00
2019-06-27T17:49:16.495Z,43.20
2019-06-27T17:51:44.139Z,42.90
2019-06-27T17:54:11.797Z,42.60
2019-06-27T17:56:39.447Z,42.00
2019-06-27T18:01:34.464Z,42.30
2019-06-27T18:04:02.123Z,43.70
2019-06-27T18:06:29.763Z,43.70
2019-06-27T18:11:24.798Z,45.10
2019-06-27T18:13:52.465Z,45.90
2019-06-27T18:16:20.119Z,46.50
2019-06-27T18:18:47.813Z,47.30
2019-06-27T18:21:15.448Z,48.00
2019-06-27T18:23:43.093Z,48.70
2019-06-27T18:26:10.745Z,49.70
2019-06-27T18:31:05.780Z,50.10
2019-06-27T18:36:03.142Z,50.00
2019-06-27T18:38:30.155Z,51.10
2019-06-27T18:40:57.854Z,51.60
2019-06-27T18:43:26.439Z,52.30
2019-06-27T18:45:54.092Z,52.80
2019-06-27T18:48:21.734Z,53.80
2019-06-27T18:50:49.406Z,53.60
2019-06-27T18:53:18.038Z,53.40
2019-06-27T18:58:13.104Z,54.50
2019-06-27T19:00:40.755Z,56.00
2019-06-27T19:03:08.394Z,57.50
2019-06-27T19:05:36.049Z,57.50
2019-06-27T19:08:03.688Z,58.90
2019-06-27T19:10:31.354Z,58.10
2019-06-27T19:12:59.008Z,64.90
2019-06-27T19:15:26.667Z,83.80
2019-06-27T19:17:54.380Z,59.30
2019-06-27T19:25:39.296Z,63.40
2019-06-27T19:28:06.931Z,60.60
2019-06-27T19:30:34.589Z,63.50
2019-06-27T19:33:02.217Z,65.10
2019-06-27T19:35:29.847Z,64.70
2019-06-27T19:38:02.371Z,65.30
2019-06-27T19:42:54.242Z,66.70
2019-06-27T19:45:21.951Z,67.90
2019-06-27T19:47:49.623Z,69.40
2019-06-27T19:50:17.536Z,69.30
2019-06-27T19:52:45.191Z,70.60
2019-06-27T19:55:13.100Z,70.50
2019-06-27T19:57:40.814Z,68.80
2019-06-27T20:00:09.127Z,70.60
2019-06-27T20:02:36.777Z,71.30
2019-06-27T20:05:05.342Z,72.00
2019-06-27T20:07:33.163Z,73.10
2019-06-27T20:10:00.821Z,74.40
2019-06-27T20:12:28.561Z,75.00
2019-06-27T20:14:56.255Z,76.20
2019-06-27T20:17:23.906Z,78.60
2019-06-27T20:19:51.543Z,79.40
2019-06-27T20:22:19.197Z,80.40
2019-06-27T20:24:46.827Z,81.50
2019-06-27T20:27:14.484Z,81.00
2019-06-27T20:29:42.129Z,81.20
2019-06-27T20:32:09.771Z,81.30
2019-06-27T20:37:06.449Z,81.70
2019-06-27T20:39:34.088Z,83.70
2019-06-27T20:46:56.471Z,99.90
2019-06-27T20:49:24.120Z,91.10
2019-06-27T20:51:51.764Z,99.90
2019-06-27T20:54:19.480Z,96.80
2019-06-27T20:56:47.120Z,97.50
2019-06-27T20:59:14.779Z,98.20
2019-06-27T21:01:42.426Z,98.10
2019-06-27T21:04:10.083Z,95.80
2019-06-27T21:06:37.720Z,92.70
2019-06-27T21:09:05.739Z,92.40
2019-06-27T21:11:33.446Z,92.80
2019-06-27T21:14:01.273Z,92.80
2019-06-27T21:18:56.342Z,99.90
2019-06-27T21:23:51.384Z,99.90
2019-06-27T22:08:04.895Z,99.90
2019-06-27T22:27:45.071Z,99.90
2019-06-27T22:32:40.975Z,99.90
2019-06-27T22:35:08.909Z,99.90
2019-06-27T22:37:35.937Z,99.90
2019-06-27T22:40:22.211Z,99.90
2019-06-27T22:43:07.530Z,99.90
2019-06-27T22:45:52.904Z,99.90
2019-06-27T22:48:20.416Z,99.90
2019-06-27T22:50:50.117Z,99.90
2019-06-27T22:53:22.631Z,99.90
2019-06-27T22:55:50.335Z,99.90
2019-06-27T22:58:17.977Z,99.90
2019-06-27T23:00:45.616Z,99.90
2019-06-27T23:03:13.275Z,99.90
2019-06-27T23:05:40.928Z,99.90
2019-06-27T23:08:08.583Z,99.90
2019-06-27T23:10:36.222Z,99.90
2019-06-27T23:13:03.882Z,99.90
2019-06-27T23:15:31.589Z,99.90
2019-06-27T23:17:59.231Z,99.90
2019-06-27T23:20:26.869Z,99.90
2019-06-27T23:22:54.519Z,99.90
2019-06-27T23:25:22.159Z,99.90
2019-06-27T23:27:49.874Z,99.90
2019-06-27T23:30:17.778Z,99.90
2019-06-27T23:32:45.431Z,99.90
2019-06-27T23:35:13.083Z,99.90
2019-06-27T23:37:40.722Z,99.90
2019-06-27T23:40:14.103Z,99.90
2019-06-27T23:42:38.004Z,99.90
2019-06-27T23:45:06.025Z,99.90
2019-06-27T23:47:33.672Z,99.90
2019-06-27T23:50:01.457Z,99.90
2019-06-27T23:52:29.259Z,99.90
2019-06-27T23:54:56.901Z,99.90
2019-06-27T23:57:24.556Z,99.90
2019-06-27T23:59:52.184Z,99.90
